Main page
METAR-TAF:

METAR-TAF

Airports :

Sohag International Airport

Sohag, Egypt

latitude: 26-20-25N, longitude: 31-44-20E, elevation: 70 m

Current weather observation

The report was made 38 minutes ago, at 05:00 UTC
Wind 6 kt from the West/Northwest
Temperature 21°C
Humidity 56%
Pressure 1012 hPa
Visibility 10 km or more
no clouds below 1500 m and no cumulonimbus

METAR: HESG 260500Z 30006KT CAVOK 21/12 Q1012 NOSIG

Time: 07:38 (05:38 UTC)

Forecast

The report was made 6 hours and 38 minutes ago, at 23:00 UTC
Forecast valid from 26 at 00 UTC to 27 at 06 UTC
Wind 8 kt from the North/Northwest
Visibility 10 km or more
no clouds below 1500 m and no cumulonimbus

TAF: HESG 252300Z 2600/2706 34008KT CAVOK

Weather observations and forecasts of more than 4000 airports (METAR and TAF reports).

The available stations are represented by yellow and red dots on the map.

Hover mouse over dot to see the name of the station.

Then click to see weather observations and forecasts.

To change the map : click on the green buttons with a black cross to zoom in, on the green button with a dash to zoom out, or on the green arrows for adjacent maps.


METAR-TAF: